createdAt,value
2018-04-22T00:00:29.219Z,0.00
2018-04-22T00:01:29.205Z,0.00
2018-04-22T00:02:29.433Z,0.00
2018-04-22T00:03:29.430Z,0.00
2018-04-22T00:04:29.213Z,0.00
2018-04-22T00:05:29.215Z,0.00
2018-04-22T00:06:29.222Z,0.00
2018-04-22T00:07:29.403Z,0.00
2018-04-22T00:08:29.217Z,0.00
2018-04-22T00:09:29.414Z,0.00
2018-04-22T00:10:29.217Z,0.00
2018-04-22T00:11:29.207Z,0.00
2018-04-22T00:12:29.221Z,0.00
2018-04-22T00:13:29.208Z,0.00
2018-04-22T00:14:29.399Z,0.00
2018-04-22T00:15:29.405Z,0.00
2018-04-22T00:16:29.396Z,0.00
2018-04-22T00:17:29.193Z,0.00
2018-04-22T00:18:29.204Z,0.00
2018-04-22T00:19:29.201Z,0.00
2018-04-22T00:20:29.191Z,0.00
2018-04-22T00:21:29.198Z,0.00
2018-04-22T00:22:29.405Z,0.00
2018-04-22T00:23:29.197Z,0.00
2018-04-22T00:24:29.200Z,0.00
2018-04-22T00:25:29.187Z,0.00
2018-04-22T00:26:29.399Z,0.00
2018-04-22T00:27:29.195Z,0.00
2018-04-22T00:28:29.197Z,0.00
2018-04-22T00:29:29.197Z,0.00
2018-04-22T00:30:29.203Z,0.00
2018-04-22T00:31:29.178Z,0.00
2018-04-22T00:32:29.194Z,0.00
2018-04-22T00:33:29.191Z,0.00
2018-04-22T00:34:29.189Z,0.00
2018-04-22T00:35:29.391Z,0.00
2018-04-22T00:36:29.177Z,0.00
2018-04-22T00:37:29.186Z,0.00
2018-04-22T00:38:29.183Z,0.00
2018-04-22T00:39:29.174Z,0.00
2018-04-22T00:40:29.185Z,0.00
2018-04-22T00:41:29.189Z,0.00
2018-04-22T00:42:29.384Z,0.00
2018-04-22T00:43:29.414Z,0.00
2018-04-22T00:44:29.173Z,0.00
2018-04-22T00:45:29.382Z,0.00
2018-04-22T00:46:29.370Z,0.00
2018-04-22T00:47:29.186Z,0.00
2018-04-22T00:48:29.369Z,0.00
2018-04-22T00:49:29.381Z,0.00
2018-04-22T00:50:29.162Z,0.00
2018-04-22T00:51:29.180Z,0.00
2018-04-22T00:52:29.164Z,0.00
2018-04-22T00:53:29.164Z,0.00
2018-04-22T00:54:29.171Z,0.00
2018-04-22T00:55:29.159Z,0.00
2018-04-22T00:56:29.187Z,0.00
2018-04-22T00:57:29.170Z,0.00
2018-04-22T00:58:29.175Z,0.00
2018-04-22T00:59:29.364Z,0.00
2018-04-22T01:00:29.370Z,0.00
2018-04-22T01:01:29.356Z,0.00
2018-04-22T01:02:29.152Z,0.00
2018-04-22T01:03:29.364Z,0.00
2018-04-22T01:04:29.357Z,0.00
2018-04-22T01:05:29.148Z,0.00
2018-04-22T01:06:29.350Z,0.00
2018-04-22T01:07:29.157Z,0.00
2018-04-22T01:08:29.382Z,0.00
2018-04-22T01:09:29.146Z,0.00
2018-04-22T01:10:29.144Z,0.00
2018-04-22T01:11:29.347Z,0.00
2018-04-22T01:12:29.157Z,0.00
2018-04-22T01:13:29.139Z,0.00
2018-04-22T01:14:29.342Z,0.00
2018-04-22T01:15:29.137Z,0.00
2018-04-22T01:16:29.148Z,0.00
2018-04-22T01:17:29.144Z,0.00
2018-04-22T01:18:29.336Z,0.00
2018-04-22T01:19:29.347Z,0.00
2018-04-22T01:20:29.132Z,0.00
2018-04-22T01:21:29.142Z,0.00
2018-04-22T01:22:29.335Z,0.00
2018-04-22T01:23:29.333Z,0.00
2018-04-22T01:24:29.139Z,0.00
2018-04-22T01:25:29.129Z,0.00
2018-04-22T01:26:29.144Z,0.00
2018-04-22T01:27:29.143Z,0.00
2018-04-22T01:28:29.137Z,0.00
2018-04-22T01:29:29.126Z,0.00
2018-04-22T01:30:29.353Z,0.00
2018-04-22T01:31:29.147Z,0.00
2018-04-22T01:32:29.152Z,0.00
2018-04-22T01:33:29.136Z,0.00
2018-04-22T01:34:29.124Z,0.00
2018-04-22T01:35:29.130Z,0.00
2018-04-22T01:36:29.124Z,0.00
2018-04-22T01:37:29.344Z,0.00
2018-04-22T01:38:29.128Z,0.00
2018-04-22T01:39:29.118Z,0.00
2018-04-22T01:40:29.336Z,0.00
2018-04-22T01:41:29.117Z,0.00
2018-04-22T01:42:29.117Z,0.00
2018-04-22T01:43:29.121Z,0.00
2018-04-22T01:44:29.124Z,0.00
2018-04-22T01:45:29.325Z,0.00
2018-04-22T01:46:29.121Z,0.00
2018-04-22T01:47:29.115Z,0.00
2018-04-22T01:48:29.124Z,0.00
2018-04-22T01:49:29.111Z,0.00
2018-04-22T01:50:29.121Z,0.00
2018-04-22T01:51:29.110Z,0.00
2018-04-22T01:52:29.108Z,0.00
2018-04-22T01:53:29.119Z,0.00
2018-04-22T01:54:29.103Z,0.00
2018-04-22T01:55:29.315Z,0.00
2018-04-22T01:56:29.106Z,0.00
2018-04-22T01:57:29.099Z,0.00
2018-04-22T01:58:29.114Z,0.00
2018-04-22T01:59:29.303Z,0.00
2018-04-22T02:00:29.297Z,0.00
2018-04-22T02:01:29.093Z,0.00
2018-04-22T02:02:29.092Z,0.00
2018-04-22T02:03:29.091Z,0.00
2018-04-22T02:04:29.099Z,0.00
2018-04-22T02:05:29.116Z,0.00
2018-04-22T02:06:29.086Z,0.00
2018-04-22T02:07:29.086Z,0.00
2018-04-22T02:08:29.084Z,0.00
2018-04-22T02:09:29.103Z,0.00
2018-04-22T02:10:29.081Z,0.00
2018-04-22T02:11:29.090Z,0.00
2018-04-22T02:12:29.283Z,0.00
2018-04-22T02:13:29.080Z,0.00
2018-04-22T02:14:29.074Z,0.00
2018-04-22T02:15:29.074Z,0.00
2018-04-22T02:16:29.086Z,0.00
2018-04-22T02:17:29.095Z,0.00
2018-04-22T02:18:29.333Z,0.00
2018-04-22T02:19:29.081Z,0.00
2018-04-22T02:20:29.283Z,0.00
2018-04-22T02:21:29.074Z,0.00
2018-04-22T02:22:29.068Z,0.00
2018-04-22T02:23:29.520Z,0.00
2018-04-22T02:24:29.090Z,0.00
2018-04-22T02:25:29.061Z,0.00
2018-04-22T02:26:29.063Z,0.00
2018-04-22T02:27:29.074Z,0.00
2018-04-22T02:28:29.082Z,0.00
2018-04-22T02:29:29.072Z,0.00
2018-04-22T02:30:29.054Z,0.00
2018-04-22T02:31:29.257Z,0.00
2018-04-22T02:32:29.051Z,0.00
2018-04-22T02:33:29.067Z,0.00
2018-04-22T02:34:29.250Z,0.00
2018-04-22T02:35:29.258Z,0.00
2018-04-22T02:36:29.047Z,0.00
2018-04-22T02:37:29.047Z,0.00
2018-04-22T02:38:29.044Z,0.00
2018-04-22T02:39:29.248Z,0.00
2018-04-22T02:40:29.251Z,0.00
2018-04-22T02:41:29.077Z,0.00
2018-04-22T02:42:29.039Z,0.00
2018-04-22T02:43:29.076Z,0.00
2018-04-22T02:44:29.047Z,0.00
2018-04-22T02:45:29.040Z,0.00
2018-04-22T02:46:29.234Z,0.00
2018-04-22T02:47:29.031Z,0.00
2018-04-22T02:48:29.047Z,0.00
2018-04-22T02:49:29.029Z,0.00
2018-04-22T02:50:29.093Z,0.00
2018-04-22T02:51:29.022Z,0.00
2018-04-22T02:52:29.223Z,0.00
2018-04-22T02:53:29.030Z,0.00
2018-04-22T02:54:29.022Z,0.00
2018-04-22T02:55:29.221Z,0.00
2018-04-22T02:56:29.041Z,0.00
2018-04-22T02:57:29.216Z,0.00
2018-04-22T02:58:29.027Z,0.00
2018-04-22T02:59:29.021Z,0.00
2018-04-22T03:00:29.020Z,0.00
2018-04-22T03:01:29.005Z,0.00
2018-04-22T03:02:29.005Z,0.00
2018-04-22T03:03:29.218Z,0.00
2018-04-22T03:04:29.001Z,0.00
2018-04-22T03:05:29.206Z,0.00
2018-04-22T03:06:29.000Z,0.00
2018-04-22T03:07:29.022Z,0.00
2018-04-22T03:08:29.005Z,0.00
2018-04-22T03:09:28.994Z,0.00
2018-04-22T03:10:28.993Z,0.00
2018-04-22T03:11:28.990Z,0.00
2018-04-22T03:12:28.989Z,0.00
2018-04-22T03:13:28.996Z,0.00
2018-04-22T03:14:28.988Z,0.00
2018-04-22T03:15:28.990Z,0.00
2018-04-22T03:16:28.991Z,0.00
2018-04-22T03:17:29.190Z,0.00
2018-04-22T03:18:29.204Z,0.00
2018-04-22T03:19:28.994Z,0.00
2018-04-22T03:20:28.987Z,0.00
2018-04-22T03:21:28.977Z,0.00
2018-04-22T03:22:29.179Z,0.00
2018-04-22T03:23:29.180Z,0.00
2018-04-22T03:24:29.180Z,0.00
2018-04-22T03:25:28.981Z,0.00
2018-04-22T03:26:29.189Z,0.00
2018-04-22T03:27:28.982Z,0.00
2018-04-22T03:28:28.965Z,0.00
2018-04-22T03:29:28.964Z,0.00
2018-04-22T03:30:28.979Z,0.00
2018-04-22T03:31:29.173Z,0.00
2018-04-22T03:32:28.964Z,0.00
2018-04-22T03:33:29.181Z,0.00
2018-04-22T03:34:28.964Z,0.00
2018-04-22T03:35:28.969Z,0.00
2018-04-22T03:36:28.965Z,0.00
2018-04-22T03:37:29.157Z,0.00
2018-04-22T03:38:28.948Z,0.00
2018-04-22T03:39:28.945Z,0.00
2018-04-22T03:40:28.960Z,0.00
2018-04-22T03:41:28.944Z,0.00
2018-04-22T03:42:29.015Z,0.00
2018-04-22T03:43:29.147Z,0.00
2018-04-22T03:44:28.962Z,0.00
2018-04-22T03:45:28.936Z,0.00
2018-04-22T03:46:29.165Z,0.00
2018-04-22T03:47:28.930Z,0.00
2018-04-22T03:48:28.951Z,0.00
2018-04-22T03:49:29.166Z,0.00
2018-04-22T03:50:28.925Z,0.00
2018-04-22T03:51:28.938Z,0.00
2018-04-22T03:52:29.141Z,0.00
2018-04-22T03:53:28.926Z,0.00
2018-04-22T03:54:28.933Z,0.00
2018-04-22T03:55:28.946Z,0.00
2018-04-22T03:56:28.918Z,0.00
2018-04-22T03:57:28.924Z,0.00
2018-04-22T03:58:28.916Z,0.00
2018-04-22T03:59:28.924Z,0.00
2018-04-22T04:00:29.128Z,0.00
2018-04-22T04:01:28.924Z,0.00
2018-04-22T04:02:29.123Z,0.00
2018-04-22T04:03:29.133Z,0.00
2018-04-22T04:04:28.906Z,0.00
2018-04-22T04:05:28.917Z,0.00
2018-04-22T04:06:29.118Z,0.00
2018-04-22T04:07:28.905Z,0.00
2018-04-22T04:08:28.914Z,0.00
2018-04-22T04:09:29.104Z,0.00
2018-04-22T04:10:28.902Z,0.00
2018-04-22T04:11:29.108Z,0.00
2018-04-22T04:12:28.901Z,0.00
2018-04-22T04:13:28.891Z,0.00
2018-04-22T04:14:28.900Z,0.00
2018-04-22T04:15:28.896Z,0.00
2018-04-22T04:16:28.882Z,0.00
2018-04-22T04:17:28.883Z,0.00
2018-04-22T04:18:29.089Z,0.00
2018-04-22T04:19:28.891Z,0.00
2018-04-22T04:20:29.096Z,0.00
2018-04-22T04:21:28.886Z,0.00
2018-04-22T04:22:28.870Z,0.00
2018-04-22T04:23:28.894Z,0.00
2018-04-22T04:24:29.090Z,0.00
2018-04-22T04:25:28.867Z,0.00
2018-04-22T04:26:28.866Z,0.00
2018-04-22T04:27:29.088Z,0.00
2018-04-22T04:28:28.887Z,0.00
2018-04-22T04:29:28.873Z,0.00
2018-04-22T04:30:28.856Z,0.00
2018-04-22T04:31:28.882Z,0.00
2018-04-22T04:32:28.853Z,0.00
2018-04-22T04:33:28.863Z,0.00
2018-04-22T04:34:29.075Z,0.00
2018-04-22T04:35:28.858Z,0.00
2018-04-22T04:36:29.060Z,0.00
2018-04-22T04:37:28.871Z,0.00
2018-04-22T04:38:28.842Z,0.00
2018-04-22T04:39:28.841Z,0.00
2018-04-22T04:40:28.849Z,0.00
2018-04-22T04:41:29.042Z,0.00
2018-04-22T04:42:29.066Z,0.00
2018-04-22T04:43:28.871Z,0.00
2018-04-22T04:44:28.844Z,0.00
2018-04-22T04:45:28.841Z,0.00
2018-04-22T04:46:29.058Z,0.00
2018-04-22T04:47:28.842Z,0.00
2018-04-22T04:48:28.853Z,0.00
2018-04-22T04:49:28.847Z,0.00
2018-04-22T04:50:29.049Z,0.00
2018-04-22T04:51:28.839Z,0.00
2018-04-22T04:52:29.033Z,5.63
2018-04-22T04:53:28.845Z,5.63
2018-04-22T04:54:28.839Z,5.63
2018-04-22T04:55:28.812Z,5.63
2018-04-22T04:56:28.838Z,5.63
2018-04-22T04:57:29.013Z,5.63
2018-04-22T04:58:28.825Z,5.63
2018-04-22T04:59:28.814Z,5.63
2018-04-22T05:00:29.006Z,5.63
2018-04-22T05:01:28.827Z,5.63
2018-04-22T05:02:28.811Z,5.63
2018-04-22T05:03:28.806Z,5.63
2018-04-22T05:04:28.820Z,11.25
2018-04-22T05:05:28.816Z,11.25
2018-04-22T05:06:28.813Z,11.25
2018-04-22T05:07:28.787Z,11.25
2018-04-22T05:08:28.787Z,11.25
2018-04-22T05:09:28.799Z,11.25
2018-04-22T05:10:29.000Z,11.25
2018-04-22T05:11:28.783Z,11.25
2018-04-22T05:12:28.776Z,11.25
2018-04-22T05:13:28.791Z,11.25
2018-04-22T05:14:28.778Z,11.25
2018-04-22T05:15:28.772Z,11.25
2018-04-22T05:16:28.814Z,11.25
2018-04-22T05:17:28.781Z,11.25
2018-04-22T05:18:28.794Z,11.25
2018-04-22T05:19:28.794Z,11.25
2018-04-22T05:20:28.776Z,11.25
2018-04-22T05:21:28.789Z,11.25
2018-04-22T05:22:28.762Z,11.25
2018-04-22T05:23:28.784Z,11.25
2018-04-22T05:24:28.778Z,11.25
2018-04-22T05:25:28.781Z,11.25
2018-04-22T05:26:28.776Z,11.25
2018-04-22T05:27:28.956Z,11.25
2018-04-22T05:28:28.755Z,11.25
2018-04-22T05:29:28.762Z,11.25
2018-04-22T05:30:28.759Z,11.25
2018-04-22T05:31:28.757Z,11.25
2018-04-22T05:32:28.961Z,11.25
2018-04-22T05:33:28.768Z,11.25
2018-04-22T05:34:28.958Z,11.25
2018-04-22T05:35:28.753Z,11.25
2018-04-22T05:36:28.970Z,11.25
2018-04-22T05:37:28.941Z,11.25
2018-04-22T05:38:28.745Z,16.88
2018-04-22T05:39:28.761Z,16.88
2018-04-22T05:40:28.746Z,16.88
2018-04-22T05:41:28.747Z,16.88
2018-04-22T05:42:28.739Z,16.88
2018-04-22T05:43:28.730Z,16.88
2018-04-22T05:44:28.740Z,16.88
2018-04-22T05:45:28.736Z,16.88
2018-04-22T05:46:28.749Z,16.88
2018-04-22T05:47:28.724Z,16.88
2018-04-22T05:48:28.924Z,16.88
2018-04-22T05:49:28.719Z,16.88
2018-04-22T05:50:28.727Z,16.88
2018-04-22T05:51:28.715Z,28.13
2018-04-22T05:52:28.924Z,28.13
2018-04-22T05:53:28.716Z,22.50
2018-04-22T05:54:28.724Z,22.50
2018-04-22T05:55:28.733Z,22.50
2018-04-22T05:56:28.743Z,28.13
2018-04-22T05:57:28.727Z,16.88
2018-04-22T05:58:28.922Z,22.50
2018-04-22T05:59:28.708Z,22.50
2018-04-22T06:00:28.718Z,22.50
2018-04-22T06:01:28.737Z,22.50
2018-04-22T06:02:28.712Z,22.50
2018-04-22T06:03:28.928Z,22.50
2018-04-22T06:04:28.716Z,22.50
2018-04-22T06:05:28.721Z,22.50
2018-04-22T06:06:28.706Z,28.13
2018-04-22T06:07:28.698Z,33.75
2018-04-22T06:08:28.710Z,33.75
2018-04-22T06:09:28.717Z,33.75
2018-04-22T06:10:28.709Z,45.00
2018-04-22T06:11:28.694Z,39.38
2018-04-22T06:12:28.896Z,33.75
2018-04-22T06:13:28.703Z,39.38
2018-04-22T06:14:28.704Z,45.00
2018-04-22T06:15:28.916Z,56.25
2018-04-22T06:16:28.693Z,45.00
2018-04-22T06:17:28.718Z,33.75
2018-04-22T06:18:28.712Z,39.38
2018-04-22T06:19:28.701Z,50.63
2018-04-22T06:20:28.699Z,50.63
2018-04-22T06:21:28.696Z,33.75
2018-04-22T06:22:28.709Z,28.13
2018-04-22T06:23:28.694Z,33.75
2018-04-22T06:24:28.683Z,33.75
2018-04-22T06:25:28.714Z,33.75
2018-04-22T06:26:28.693Z,28.13
2018-04-22T06:27:28.682Z,28.13
2018-04-22T06:28:28.679Z,28.13
2018-04-22T06:29:28.679Z,33.75
2018-04-22T06:30:28.691Z,33.75
2018-04-22T06:31:28.676Z,33.75
2018-04-22T06:32:28.678Z,33.75
2018-04-22T06:33:28.678Z,33.75
2018-04-22T06:34:28.684Z,33.75
2018-04-22T06:35:28.674Z,39.38
2018-04-22T06:36:28.676Z,39.38
2018-04-22T06:37:28.679Z,50.63
2018-04-22T06:38:28.695Z,50.63
2018-04-22T06:39:28.710Z,84.38
2018-04-22T06:40:28.712Z,90.00
2018-04-22T06:41:28.890Z,95.63
2018-04-22T06:42:28.688Z,135.00
2018-04-22T06:43:28.683Z,95.63
2018-04-22T06:44:28.686Z,84.38
2018-04-22T06:45:28.688Z,50.63
2018-04-22T06:46:28.705Z,50.63
2018-04-22T06:47:28.693Z,50.63
2018-04-22T06:48:28.674Z,95.63
2018-04-22T06:49:28.684Z,50.63
2018-04-22T06:50:28.674Z,50.63
2018-04-22T06:51:28.670Z,56.25
2018-04-22T06:52:28.684Z,73.13
2018-04-22T06:53:28.698Z,157.50
2018-04-22T06:54:28.668Z,444.38
2018-04-22T06:55:28.690Z,489.38
2018-04-22T06:56:28.687Z,196.88
2018-04-22T06:57:28.700Z,73.13
2018-04-22T06:58:28.673Z,67.50
2018-04-22T06:59:28.698Z,90.00
2018-04-22T07:00:28.672Z,106.88
2018-04-22T07:01:28.683Z,140.63
2018-04-22T07:02:28.682Z,95.63
2018-04-22T07:03:28.674Z,61.88
2018-04-22T07:04:28.675Z,90.00
2018-04-22T07:05:28.715Z,73.13
2018-04-22T07:06:28.903Z,61.88
2018-04-22T07:07:28.711Z,112.50
2018-04-22T07:08:28.697Z,135.00
2018-04-22T07:09:28.676Z,106.88
2018-04-22T07:10:28.688Z,73.13
2018-04-22T07:11:28.705Z,56.25
2018-04-22T07:12:28.679Z,56.25
2018-04-22T07:13:28.703Z,61.88
2018-04-22T07:14:28.691Z,61.88
2018-04-22T07:15:28.678Z,56.25
2018-04-22T07:16:28.894Z,61.88
2018-04-22T07:17:28.694Z,61.88
2018-04-22T07:18:28.694Z,61.88
2018-04-22T07:19:28.904Z,61.88
2018-04-22T07:20:28.885Z,67.50
2018-04-22T07:21:28.685Z,61.88
2018-04-22T07:22:28.693Z,67.50
2018-04-22T07:23:28.687Z,84.38
2018-04-22T07:24:28.688Z,67.50
2018-04-22T07:25:28.902Z,67.50
2018-04-22T07:26:28.686Z,61.88
2018-04-22T07:27:28.913Z,67.50
2018-04-22T07:28:28.690Z,67.50
2018-04-22T07:29:28.697Z,61.88
2018-04-22T07:30:28.689Z,67.50
2018-04-22T07:31:28.701Z,61.88
2018-04-22T07:32:28.690Z,67.50
2018-04-22T07:33:28.908Z,73.13
2018-04-22T07:34:28.692Z,84.38
2018-04-22T07:35:28.728Z,270.00
2018-04-22T07:36:28.716Z,213.75
2018-04-22T07:37:28.699Z,84.38
2018-04-22T07:38:28.695Z,78.75
2018-04-22T07:39:28.912Z,84.38
2018-04-22T07:40:28.702Z,67.50
2018-04-22T07:41:28.709Z,73.13
2018-04-22T07:42:28.736Z,78.75
2018-04-22T07:43:28.906Z,168.75
2018-04-22T07:44:28.712Z,73.13
2018-04-22T07:45:28.718Z,67.50
2018-04-22T07:46:28.706Z,73.13
2018-04-22T07:47:28.706Z,101.25
2018-04-22T07:48:28.723Z,67.50
2018-04-22T07:49:28.722Z,73.13
2018-04-22T07:50:28.708Z,129.38
2018-04-22T07:51:28.725Z,123.75
2018-04-22T07:52:28.711Z,337.50
2018-04-22T07:53:28.774Z,247.50
2018-04-22T07:54:28.714Z,354.38
2018-04-22T07:55:28.724Z,483.75
2018-04-22T07:56:28.727Z,416.25
2018-04-22T07:57:28.727Z,815.63
2018-04-22T07:58:28.732Z,472.50
2018-04-22T07:59:28.724Z,185.63
2018-04-22T08:00:28.721Z,112.50
2018-04-22T08:01:28.724Z,95.63
2018-04-22T08:02:28.724Z,101.25
2018-04-22T08:03:28.931Z,129.38
2018-04-22T08:04:28.777Z,495.00
2018-04-22T08:05:28.753Z,545.63
2018-04-22T08:06:28.731Z,382.50
2018-04-22T08:07:28.733Z,185.63
2018-04-22T08:08:28.746Z,202.50
2018-04-22T08:09:28.961Z,101.25
2018-04-22T08:10:28.747Z,191.25
2018-04-22T08:11:28.740Z,84.38
2018-04-22T08:12:28.752Z,219.38
2018-04-22T08:13:28.768Z,84.38
2018-04-22T08:14:28.742Z,78.75
2018-04-22T08:15:28.949Z,101.25
2018-04-22T08:16:28.748Z,202.50
2018-04-22T08:17:28.753Z,168.75
2018-04-22T08:18:28.760Z,140.63
2018-04-22T08:19:28.757Z,911.25
2018-04-22T08:20:28.972Z,405.00
2018-04-22T08:21:28.770Z,146.25
2018-04-22T08:22:28.965Z,556.88
2018-04-22T08:23:28.986Z,298.13
2018-04-22T08:24:28.773Z,427.50
2018-04-22T08:25:28.780Z,90.00
2018-04-22T08:26:28.980Z,84.38
2018-04-22T08:27:28.770Z,101.25
2018-04-22T08:28:28.801Z,348.75
2018-04-22T08:29:28.784Z,382.50
2018-04-22T08:30:28.785Z,1456.88
2018-04-22T08:31:28.788Z,1473.75
2018-04-22T08:32:28.985Z,1575.00
2018-04-22T08:33:28.782Z,1614.38
2018-04-22T08:34:29.002Z,1738.13
2018-04-22T08:35:28.786Z,1665.00
2018-04-22T08:36:29.013Z,90.00
2018-04-22T08:37:28.802Z,1738.13
2018-04-22T08:38:28.998Z,1901.25
2018-04-22T08:39:28.811Z,1867.50
2018-04-22T08:40:29.014Z,1777.50
2018-04-22T08:41:29.021Z,1597.50
2018-04-22T08:42:28.812Z,1636.88
2018-04-22T08:43:28.822Z,1642.50
2018-04-22T08:44:28.811Z,1687.50
2018-04-22T08:45:28.814Z,1749.38
2018-04-22T08:46:28.815Z,1845.00
2018-04-22T08:47:28.822Z,1906.88
2018-04-22T08:48:28.854Z,1968.75
2018-04-22T08:49:28.850Z,1985.63
2018-04-22T08:50:28.843Z,1890.00
2018-04-22T08:51:28.850Z,1569.38
2018-04-22T08:52:29.076Z,697.50
2018-04-22T08:53:28.859Z,140.63
2018-04-22T08:54:29.078Z,112.50
2018-04-22T08:55:28.866Z,90.00
2018-04-22T08:56:28.896Z,84.38
2018-04-22T08:57:28.885Z,73.13
2018-04-22T08:58:28.870Z,78.75
2018-04-22T08:59:28.873Z,78.75
2018-04-22T09:00:28.891Z,78.75
2018-04-22T09:01:28.885Z,73.13
2018-04-22T09:02:28.888Z,73.13
2018-04-22T09:03:28.903Z,67.50
2018-04-22T09:04:28.920Z,67.50
2018-04-22T09:05:28.937Z,67.50
2018-04-22T09:06:28.901Z,73.13
2018-04-22T09:07:28.945Z,73.13
2018-04-22T09:08:28.920Z,67.50
2018-04-22T09:09:29.122Z,61.88
2018-04-22T09:10:28.917Z,61.88
2018-04-22T09:11:28.932Z,61.88
2018-04-22T09:12:28.928Z,56.25
2018-04-22T09:13:28.926Z,50.63
2018-04-22T09:14:28.945Z,50.63
2018-04-22T09:15:28.957Z,50.63
2018-04-22T09:16:28.975Z,50.63
2018-04-22T09:17:28.941Z,45.00
2018-04-22T09:18:28.951Z,45.00
2018-04-22T09:19:28.946Z,45.00
2018-04-22T09:20:28.948Z,45.00
2018-04-22T09:21:28.964Z,45.00
2018-04-22T09:22:28.969Z,45.00
2018-04-22T09:23:28.956Z,45.00
2018-04-22T09:24:28.984Z,45.00
2018-04-22T09:25:28.970Z,39.38
2018-04-22T09:26:28.966Z,39.38
2018-04-22T09:27:28.967Z,39.38
2018-04-22T09:28:28.981Z,45.00
2018-04-22T09:29:28.975Z,39.38
2018-04-22T09:30:28.987Z,39.38
2018-04-22T09:31:28.980Z,45.00
2018-04-22T09:32:28.994Z,45.00
2018-04-22T09:33:28.997Z,45.00
2018-04-22T09:34:28.984Z,45.00
2018-04-22T09:35:28.986Z,45.00
2018-04-22T09:36:28.990Z,45.00
2018-04-22T09:37:28.996Z,45.00
2018-04-22T09:38:29.012Z,45.00
2018-04-22T09:39:28.999Z,45.00
2018-04-22T09:40:29.004Z,45.00
2018-04-22T09:41:29.015Z,45.00
2018-04-22T09:42:29.004Z,45.00
2018-04-22T09:43:29.030Z,39.38
2018-04-22T09:44:29.022Z,45.00
2018-04-22T09:45:29.055Z,45.00
2018-04-22T09:46:29.028Z,45.00
2018-04-22T09:47:29.015Z,45.00
2018-04-22T09:48:29.034Z,45.00
2018-04-22T09:49:29.036Z,45.00
2018-04-22T09:50:29.025Z,45.00
2018-04-22T09:51:29.026Z,45.00
2018-04-22T09:52:29.028Z,45.00
2018-04-22T09:53:29.043Z,39.38
2018-04-22T09:54:29.058Z,45.00
2018-04-22T09:55:29.032Z,45.00
2018-04-22T09:56:29.043Z,45.00
2018-04-22T09:57:29.066Z,45.00
2018-04-22T09:58:29.054Z,50.63
2018-04-22T09:59:29.061Z,50.63
2018-04-22T10:00:29.062Z,50.63
2018-04-22T10:01:29.060Z,45.00
2018-04-22T10:02:29.066Z,50.63
2018-04-22T10:03:29.077Z,50.63
2018-04-22T10:04:29.072Z,45.00
2018-04-22T10:05:29.058Z,45.00
2018-04-22T10:06:29.074Z,45.00
2018-04-22T10:07:29.067Z,45.00
2018-04-22T10:08:29.080Z,45.00
2018-04-22T10:09:29.078Z,45.00
2018-04-22T10:10:29.083Z,45.00
2018-04-22T10:11:29.093Z,45.00
2018-04-22T10:12:29.096Z,45.00
2018-04-22T10:13:29.080Z,45.00
2018-04-22T10:14:29.078Z,45.00
2018-04-22T10:15:29.082Z,45.00
2018-04-22T10:16:29.130Z,45.00
2018-04-22T10:17:29.111Z,45.00
2018-04-22T10:18:29.098Z,45.00
2018-04-22T10:19:29.089Z,45.00
2018-04-22T10:20:29.091Z,45.00
2018-04-22T10:21:29.114Z,45.00
2018-04-22T10:22:29.107Z,45.00
2018-04-22T10:23:29.108Z,45.00
2018-04-22T10:24:29.099Z,45.00
2018-04-22T10:25:29.114Z,45.00
2018-04-22T10:26:29.120Z,45.00
2018-04-22T10:27:29.106Z,45.00
2018-04-22T10:28:29.127Z,45.00
2018-04-22T10:29:29.110Z,45.00
2018-04-22T10:30:29.123Z,45.00
2018-04-22T10:31:29.128Z,45.00
2018-04-22T10:32:29.140Z,45.00
2018-04-22T10:33:29.143Z,45.00
2018-04-22T10:34:29.135Z,45.00
2018-04-22T10:35:29.125Z,39.38
2018-04-22T10:36:29.135Z,45.00
2018-04-22T10:37:29.149Z,39.38
2018-04-22T10:38:29.141Z,39.38
2018-04-22T10:39:29.143Z,39.38
2018-04-22T10:40:29.147Z,39.38
2018-04-22T10:41:29.137Z,45.00
2018-04-22T10:42:29.146Z,45.00
2018-04-22T10:43:29.149Z,39.38
2018-04-22T10:44:29.141Z,45.00
2018-04-22T10:45:29.145Z,39.38
2018-04-22T10:46:29.352Z,39.38
2018-04-22T10:47:29.151Z,45.00
2018-04-22T10:48:29.162Z,33.75
2018-04-22T10:49:29.154Z,39.38
2018-04-22T10:50:29.165Z,39.38
2018-04-22T10:51:29.177Z,33.75
2018-04-22T10:52:29.160Z,33.75
2018-04-22T10:53:29.164Z,39.38
2018-04-22T10:54:29.171Z,33.75
2018-04-22T10:55:29.178Z,33.75
2018-04-22T10:56:29.168Z,33.75
2018-04-22T10:57:29.168Z,33.75
2018-04-22T10:58:29.205Z,33.75
2018-04-22T10:59:29.171Z,33.75
2018-04-22T11:00:29.190Z,33.75
2018-04-22T11:01:29.181Z,33.75
2018-04-22T11:02:29.178Z,33.75
2018-04-22T11:03:29.203Z,33.75
2018-04-22T11:04:29.184Z,39.38
2018-04-22T11:05:29.248Z,39.38
2018-04-22T11:06:29.185Z,33.75
2018-04-22T11:07:29.200Z,39.38
2018-04-22T11:08:29.208Z,39.38
2018-04-22T11:09:29.196Z,33.75
2018-04-22T11:10:29.204Z,33.75
2018-04-22T11:11:29.214Z,33.75
2018-04-22T11:12:29.408Z,39.38
2018-04-22T11:13:29.205Z,39.38
2018-04-22T11:14:29.408Z,39.38
2018-04-22T11:15:29.230Z,39.38
2018-04-22T11:16:29.226Z,33.75
2018-04-22T11:17:29.256Z,33.75
2018-04-22T11:18:29.215Z,33.75
2018-04-22T11:19:29.229Z,33.75
2018-04-22T11:20:29.231Z,33.75
2018-04-22T11:21:29.426Z,39.38
2018-04-22T11:22:29.235Z,39.38
2018-04-22T11:23:29.444Z,39.38
2018-04-22T11:24:29.239Z,39.38
2018-04-22T11:25:29.231Z,39.38
2018-04-22T11:26:29.234Z,45.00
2018-04-22T11:27:29.234Z,45.00
2018-04-22T11:28:29.236Z,45.00
2018-04-22T11:29:29.251Z,39.38
2018-04-22T11:30:29.242Z,39.38
2018-04-22T11:31:29.247Z,33.75
2018-04-22T11:32:29.247Z,33.75
2018-04-22T11:33:29.271Z,28.13
2018-04-22T11:34:29.249Z,28.13
2018-04-22T11:35:29.462Z,28.13
2018-04-22T11:36:29.267Z,22.50
2018-04-22T11:37:29.269Z,22.50
2018-04-22T11:38:29.269Z,22.50
2018-04-22T11:39:29.260Z,22.50
2018-04-22T11:40:29.273Z,22.50
2018-04-22T11:41:29.280Z,22.50
2018-04-22T11:42:29.270Z,22.50
2018-04-22T11:43:29.273Z,22.50
2018-04-22T11:44:29.301Z,16.88
2018-04-22T11:45:29.288Z,16.88
2018-04-22T11:46:29.302Z,16.88
2018-04-22T11:47:29.289Z,16.88
2018-04-22T11:48:29.310Z,16.88
2018-04-22T11:49:29.308Z,22.50
2018-04-22T11:50:29.287Z,28.13
2018-04-22T11:51:29.288Z,28.13
2018-04-22T11:52:29.289Z,28.13
2018-04-22T11:53:29.301Z,28.13
2018-04-22T11:54:29.307Z,28.13
2018-04-22T11:55:29.299Z,28.13
2018-04-22T11:56:29.302Z,22.50
2018-04-22T11:57:29.315Z,28.13
2018-04-22T11:58:29.304Z,28.13
2018-04-22T11:59:29.317Z,22.50
2018-04-22T12:00:29.319Z,22.50
2018-04-22T12:01:29.312Z,22.50
2018-04-22T12:02:29.348Z,22.50
2018-04-22T12:03:29.316Z,22.50
2018-04-22T12:04:29.329Z,22.50
2018-04-22T12:05:29.522Z,22.50
2018-04-22T12:06:29.339Z,22.50
2018-04-22T12:07:29.334Z,22.50
2018-04-22T12:08:29.324Z,22.50
2018-04-22T12:09:29.332Z,22.50
2018-04-22T12:10:29.341Z,28.13
2018-04-22T12:11:29.345Z,28.13
2018-04-22T12:12:29.351Z,28.13
2018-04-22T12:13:29.338Z,28.13
2018-04-22T12:14:29.356Z,28.13
2018-04-22T12:15:29.566Z,28.13
2018-04-22T12:16:29.357Z,28.13
2018-04-22T12:17:29.577Z,28.13
2018-04-22T12:18:29.363Z,28.13
2018-04-22T12:19:29.357Z,28.13
2018-04-22T12:20:29.393Z,28.13
2018-04-22T12:21:29.377Z,28.13
2018-04-22T12:22:29.369Z,28.13
2018-04-22T12:23:29.569Z,28.13
2018-04-22T12:24:29.364Z,28.13
2018-04-22T12:25:29.366Z,39.38
2018-04-22T12:26:29.390Z,33.75
2018-04-22T12:27:29.586Z,28.13
2018-04-22T12:28:29.387Z,33.75
2018-04-22T12:29:29.396Z,33.75
2018-04-22T12:30:29.390Z,33.75
2018-04-22T12:31:29.622Z,33.75
2018-04-22T12:32:29.398Z,28.13
2018-04-22T12:33:29.390Z,33.75
2018-04-22T12:34:29.402Z,39.38
2018-04-22T12:35:29.413Z,39.38
2018-04-22T12:36:29.400Z,39.38
2018-04-22T12:37:29.397Z,33.75
2018-04-22T12:38:29.409Z,28.13
2018-04-22T12:39:29.402Z,28.13
2018-04-22T12:40:29.402Z,28.13
2018-04-22T12:41:29.403Z,28.13
2018-04-22T12:42:29.430Z,22.50
2018-04-22T12:43:29.410Z,16.88
2018-04-22T12:44:29.412Z,16.88
2018-04-22T12:45:29.617Z,16.88
2018-04-22T12:46:29.437Z,11.25
2018-04-22T12:47:29.418Z,11.25
2018-04-22T12:48:29.625Z,11.25
2018-04-22T12:49:29.436Z,11.25
2018-04-22T12:50:29.437Z,11.25
2018-04-22T12:51:29.439Z,11.25
2018-04-22T12:52:29.467Z,11.25
2018-04-22T12:53:29.461Z,16.88
2018-04-22T12:54:29.458Z,16.88
2018-04-22T12:55:29.467Z,16.88
2018-04-22T12:56:29.466Z,16.88
2018-04-22T12:57:29.439Z,16.88
2018-04-22T12:58:29.656Z,16.88
2018-04-22T12:59:29.660Z,11.25